KBVO

Details ICAO KBVO
Name Bartlesville Muni
Region United States
Timezone America/Chicago (UTC-6.0)
Plans Departing 3
Arriving 3
Stats Elevation 713 ft / 217 m (AMSL)
Location 36.762465° -96.011146°
Runways 1
Magnetic Variation 2.733° E
Sunrise 2017-12-17 13:32:13 UTC / 2017-12-17 07:32:13 Local
Sunset 2017-12-17 23:11:06 UTC / 2017-12-17 17:11:06 Local
Advertisement - Login to hide

Runways

ID Width Length Bearing (true) Bearing (mag) Surface Threshold Offset Overrun Length
17 100 ft / 30 m 6,216 ft / 1,895 m 178.84° 176.11° Asphalt 0 ft / 0 m 0 ft / 0 m
35 100 ft / 30 m 6,216 ft / 1,895 m 358.84° 356.11° Asphalt 300 ft / 91 m 0 ft / 0 m

Approach Navaids

Runway Type Ident Frequency Range Bearing (true) Bearing (mag) Slope Elevation
17 Localiser IBVO 111.30 MHz 18 nm / 33 km 178.87° 176.14° - 713 ft / 217 m (AMSL)

Map

Weather


0- 5 10 15 20 25 30 35+ Temperature / ° C

Clouds and Precipitation
Forecast for 2017-12-17 18:00 UTC. Updated 43 minutes ago

Ground ~20,000 ft ~40,000 ft Winds

METAR

KBVO 171553Z AUTO 16004KT 7SM OVC007 07/06 A3007 RMK AO2 CIG 005V011 SLP180 T00720061

TAF

TAF AMD KBVO 171502Z 1715/1812 00000KT 5SM BR BKN006 OVC010 FM171600 18009KT P6SM OVC015 FM172100 18009KT P6SM OVC025 FM180300 00000KT 4SM BR OVC015

Frequencies

Recorded 132.67 MHz ASOS
Unicom 123.00 MHz UNICOM
Unicom 120.00 MHz CTAF
Warning: Do not use this data for real-world aviation or navigation. No guarantee of current accuracy is given.